Time;durP1;ratioP1;P1;durP2;ratioP2;P2;SDS_P1;SDS_P2;PMS_P1;PMS_P2;Temp;Humidity;BMP_temperature;BMP_pressure;BME280_temperature;BME280_humidity;BME280_pressure;Samples;Min_cycle;Max_cycle;Signal;HPM_P1;HPM_P2
2021/03/04 00:00:33;;;;;;;137.95;71.72;;;;;;;;;;5134287;27;20023;-66
2021/03/04 00:02:59;;;;;;;141.15;70.82;;;;;;;;;;5137741;27;20027;-67
2021/03/04 00:05:25;;;;;;;138.40;68.60;;;;;;;;;;5134911;27;20032;-66
2021/03/04 00:07:52;;;;;;;142.57;72.18;;;;;;;;;;5118352;28;20034;-65
2021/03/04 00:10:19;;;;;;;137.98;71.47;;;;;;;;;;5118097;27;20024;-68
2021/03/04 00:12:45;;;;;;;134.90;71.57;;;;;;;;;;5117625;28;20114;-67
2021/03/04 00:15:13;;;;;;;129.68;68.38;;;;;;;;;;5099543;28;20456;-68
2021/03/04 00:17:39;;;;;;;133.45;68.57;;;;;;;;;;5119606;27;20026;-67
2021/03/04 00:20:09;;;;;;;128.82;69.45;;;;;;;;;;5137955;27;20019;-69
2021/03/04 00:22:35;;;;;;;135.48;70.35;;;;;;;;;;5138275;27;20019;-66
2021/03/04 00:25:02;;;;;;;134.07;67.43;;;;;;;;;;5119896;27;20092;-67
2021/03/04 00:27:28;;;;;;;134.98;69.50;;;;;;;;;;5138014;27;20019;-68
2021/03/04 00:29:55;;;;;;;138.70;66.88;;;;;;;;;;5118821;27;20453;-66
2021/03/04 00:32:21;;;;;;;128.98;67.45;;;;;;;;;;5137781;27;20094;-67
2021/03/04 00:34:47;;;;;;;134.38;68.25;;;;;;;;;;5137776;27;20027;-66
2021/03/04 00:37:13;;;;;;;130.13;68.40;;;;;;;;;;5137718;27;20015;-69
2021/03/04 00:39:39;;;;;;;137.18;70.97;;;;;;;;;;5137615;27;20459;-68
2021/03/04 00:42:06;;;;;;;138.40;71.88;;;;;;;;;;5138082;27;20105;-68
2021/03/04 00:44:32;;;;;;;146.10;74.83;;;;;;;;;;5130879;27;20015;-72
2021/03/04 00:46:58;;;;;;;139.95;71.65;;;;;;;;;;5117543;28;20484;-68
2021/03/04 00:49:24;;;;;;;137.90;70.30;;;;;;;;;;5116944;28;20062;-69
2021/03/04 00:51:50;;;;;;;138.32;73.90;;;;;;;;;;5133702;27;20023;-70
2021/03/04 00:54:19;;;;;;;138.88;71.30;;;;;;;;;;5119243;27;20046;-70
2021/03/04 00:56:45;;;;;;;139.90;69.75;;;;;;;;;;5119511;27;20340;-70
2021/03/04 00:59:15;;;;;;;133.82;68.85;;;;;;;;;;5135938;27;20019;-70
2021/03/04 01:01:41;;;;;;;134.55;69.47;;;;;;;;;;5123082;27;20368;-66
2021/03/04 01:04:07;;;;;;;159.52;82.40;;;;;;;;;;5098883;28;20012;-69
2021/03/04 01:06:33;;;;;;;165.15;81.38;;;;;;;;;;5098631;28;20031;-64
2021/03/04 01:08:59;;;;;;;173.15;89.22;;;;;;;;;;5098269;28;20453;-68
2021/03/04 01:11:25;;;;;;;177.52;89.00;;;;;;;;;;5120851;27;20023;-68
2021/03/04 01:13:51;;;;;;;196.82;96.93;;;;;;;;;;5119897;28;20023;-67
2021/03/04 01:16:17;;;;;;;219.25;110.47;;;;;;;;;;5101939;28;20024;-66
2021/03/04 01:18:43;;;;;;;206.32;111.15;;;;;;;;;;5121107;28;20043;-67
2021/03/04 01:21:10;;;;;;;213.48;109.53;;;;;;;;;;5120625;28;20015;-66
2021/03/04 01:23:36;;;;;;;260.98;130.35;;;;;;;;;;5132447;27;20087;-66
2021/03/04 01:26:02;;;;;;;284.23;144.70;;;;;;;;;;5141215;27;20034;-68
2021/03/04 01:28:28;;;;;;;357.65;181.70;;;;;;;;;;5123179;27;20086;-69
2021/03/04 01:30:54;;;;;;;356.48;187.80;;;;;;;;;;5128745;27;20061;-67
2021/03/04 01:33:20;;;;;;;383.52;205.13;;;;;;;;;;5101755;28;20114;-67
2021/03/04 01:35:47;;;;;;;416.05;224.02;;;;;;;;;;5101133;28;20020;-68
2021/03/04 01:38:13;;;;;;;377.67;204.93;;;;;;;;;;5117199;28;20152;-70
2021/03/04 01:40:40;;;;;;;365.70;199.18;;;;;;;;;;5122569;27;20080;-66
2021/03/04 01:43:06;;;;;;;358.40;189.45;;;;;;;;;;5125177;27;20024;-67
2021/03/04 01:45:32;;;;;;;392.63;213.13;;;;;;;;;;5115394;28;20364;-69
2021/03/04 01:47:58;;;;;;;363.83;191.52;;;;;;;;;;5116072;28;20024;-68
2021/03/04 01:50:26;;;;;;;398.13;203.90;;;;;;;;;;5121960;27;20015;-69
2021/03/04 01:52:53;;;;;;;395.85;205.48;;;;;;;;;;5136743;27;20019;-67
2021/03/04 01:55:19;;;;;;;390.35;207.57;;;;;;;;;;5136165;27;20062;-67
2021/03/04 01:57:46;;;;;;;380.73;200.57;;;;;;;;;;5117597;27;20023;-68
2021/03/04 02:00:13;;;;;;;401.83;210.57;;;;;;;;;;5136281;27;20068;-66
2021/03/04 02:02:40;;;;;;;409.15;214.05;;;;;;;;;;5125870;27;20113;-66
2021/03/04 02:05:13;;;;;;;397.30;214.30;;;;;;;;;;5097022;28;20032;-66
2021/03/04 02:07:49;;;;;;;397.60;205.35;;;;;;;;;;5116128;28;20461;-66
2021/03/04 02:10:20;;;;;;;439.35;235.57;;;;;;;;;;5100355;27;20023;-68
2021/03/04 02:12:58;;;;;;;408.02;213.57;;;;;;;;;;5135959;27;20094;-66
2021/03/04 02:15:26;;;;;;;415.85;209.93;;;;;;;;;;5135742;27;20023;-67
2021/03/04 02:17:53;;;;;;;418.70;218.02;;;;;;;;;;5115961;27;20023;-69
2021/03/04 02:20:32;;;;;;;431.00;229.93;;;;;;;;;;5115125;28;20094;-69
2021/03/04 02:23:01;;;;;;;402.75;215.75;;;;;;;;;;5097130;28;20371;-68
2021/03/04 02:25:46;;;;;;;423.48;218.48;;;;;;;;;;5111590;27;20031;-67
2021/03/04 02:28:13;;;;;;;468.17;248.77;;;;;;;;;;5135492;27;20034;-67
2021/03/04 02:30:41;;;;;;;445.90;241.65;;;;;;;;;;5099943;28;20463;-67
2021/03/04 02:33:36;;;;;;;418.67;224.77;;;;;;;;;;5096572;28;20372;-69
2021/03/04 02:36:03;;;;;;;411.38;215.52;;;;;;;;;;5097945;28;20039;-68
2021/03/04 02:38:29;;;;;;;409.35;211.43;;;;;;;;;;5097032;28;20054;-69
2021/03/04 02:40:56;;;;;;;421.45;218.45;;;;;;;;;;5102997;27;20039;-69
2021/03/04 02:43:24;;;;;;;406.65;212.73;;;;;;;;;;5115206;27;20455;-68
2021/03/04 02:45:51;;;;;;;407.08;211.52;;;;;;;;;;5135404;27;20027;-68
2021/03/04 02:48:18;;;;;;;408.13;216.35;;;;;;;;;;5116426;27;20016;-69
2021/03/04 02:50:46;;;;;;;405.95;214.68;;;;;;;;;;5117014;27;20063;-69
2021/03/04 02:53:13;;;;;;;409.85;211.75;;;;;;;;;;5116882;27;20026;-70
2021/03/04 02:55:39;;;;;;;393.60;211.27;;;;;;;;;;5123889;27;20028;-70
2021/03/04 02:58:12;;;;;;;405.98;213.07;;;;;;;;;;5134932;27;20019;-67
2021/03/04 03:00:39;;;;;;;406.25;209.02;;;;;;;;;;5134934;27;20325;-67
2021/03/04 03:03:13;;;;;;;412.47;213.23;;;;;;;;;;5116802;27;20068;-66
2021/03/04 03:05:42;;;;;;;401.83;210.48;;;;;;;;;;5135086;27;20030;-69
2021/03/04 03:08:09;;;;;;;405.88;208.48;;;;;;;;;;5116394;27;20027;-69
2021/03/04 03:10:35;;;;;;;385.27;201.70;;;;;;;;;;5116527;27;20056;-68
2021/03/04 03:13:03;;;;;;;389.92;200.27;;;;;;;;;;5096242;28;20413;-68
2021/03/04 03:15:29;;;;;;;370.40;194.38;;;;;;;;;;5095913;28;20051;-68
2021/03/04 03:17:55;;;;;;;391.10;200.98;;;;;;;;;;5099177;27;20049;-67
2021/03/04 03:20:24;;;;;;;401.73;207.80;;;;;;;;;;5117133;28;20019;-67
2021/03/04 03:22:51;;;;;;;400.63;205.55;;;;;;;;;;5134588;27;20426;-67
2021/03/04 03:25:17;;;;;;;406.17;211.57;;;;;;;;;;5134830;27;20034;-66
2021/03/04 03:27:44;;;;;;;414.85;213.55;;;;;;;;;;5133739;27;20019;-68
2021/03/04 03:30:12;;;;;;;421.70;214.40;;;;;;;;;;5113757;28;20475;-68
2021/03/04 03:32:38;;;;;;;;;;;;;;;;;;5122646;28;20408;-66
2021/03/04 03:35:05;;;;;;;423.27;215.23;;;;;;;;;;5134867;28;19946;-68
2021/03/04 03:37:31;;;;;;;412.85;211.73;;;;;;;;;;5137084;27;20011;-68
2021/03/04 03:39:58;;;;;;;387.38;202.23;;;;;;;;;;5138779;27;20405;-68
2021/03/04 03:42:24;;;;;;;398.48;205.73;;;;;;;;;;5119259;27;20078;-69
2021/03/04 03:44:51;;;;;;;391.95;194.98;;;;;;;;;;5138611;27;20023;-65
2021/03/04 03:47:17;;;;;;;341.67;180.38;;;;;;;;;;5138969;27;20019;-68
2021/03/04 03:49:43;;;;;;;316.05;158.95;;;;;;;;;;5138630;27;20019;-69
2021/03/04 03:52:10;;;;;;;298.98;144.77;;;;;;;;;;5129730;27;20023;-68
2021/03/04 03:54:37;;;;;;;279.02;146.40;;;;;;;;;;5099977;28;20016;-67
2021/03/04 03:57:04;;;;;;;287.35;148.20;;;;;;;;;;5118182;28;20092;-65
2021/03/04 03:59:30;;;;;;;;;;;;;;;;;;5100261;28;20037;-65
2021/03/04 04:01:56;;;;;;;287.90;145.18;;;;;;;;;;5123965;27;20328;-69
2021/03/04 04:04:23;;;;;;;311.30;155.48;;;;;;;;;;5119922;27;20034;-67
2021/03/04 04:06:49;;;;;;;281.92;141.63;;;;;;;;;;5138464;27;20027;-66
2021/03/04 04:09:16;;;;;;;286.13;146.23;;;;;;;;;;5120072;27;20466;-67
2021/03/04 04:11:42;;;;;;;281.83;140.10;;;;;;;;;;5118204;27;20072;-67
2021/03/04 04:14:08;;;;;;;262.65;136.00;;;;;;;;;;5123882;27;20020;-67
2021/03/04 04:16:35;;;;;;;253.50;133.07;;;;;;;;;;5117804;28;20024;-69
2021/03/04 04:19:02;;;;;;;251.38;129.85;;;;;;;;;;5099415;28;20012;-67
2021/03/04 04:21:29;;;;;;;235.30;121.95;;;;;;;;;;5117695;27;20019;-66
2021/03/04 04:23:55;;;;;;;245.35;125.72;;;;;;;;;;5119270;27;20110;-64
2021/03/04 04:26:21;;;;;;;250.68;125.20;;;;;;;;;;5137576;27;20027;-67
2021/03/04 04:28:47;;;;;;;240.60;124.60;;;;;;;;;;5138398;27;20021;-68
2021/03/04 04:31:14;;;;;;;236.02;120.55;;;;;;;;;;5137810;27;20036;-67
2021/03/04 04:33:40;;;;;;;230.15;120.57;;;;;;;;;;5119517;27;20016;-66
2021/03/04 04:36:06;;;;;;;282.73;137.35;;;;;;;;;;5117135;28;20027;-68
2021/03/04 04:38:32;;;;;;;298.35;142.30;;;;;;;;;;5099335;28;20403;-67
2021/03/04 04:40:58;;;;;;;254.05;127.07;;;;;;;;;;5117241;28;20101;-67
2021/03/04 04:43:25;;;;;;;232.18;118.78;;;;;;;;;;5132223;27;20031;-67
2021/03/04 04:45:51;;;;;;;241.93;126.20;;;;;;;;;;5137380;27;20026;-66
2021/03/04 04:48:17;;;;;;;238.48;123.35;;;;;;;;;;5118860;27;20019;-67
2021/03/04 04:50:43;;;;;;;239.75;122.22;;;;;;;;;;5138037;27;20089;-66
2021/03/04 04:53:10;;;;;;;233.85;118.80;;;;;;;;;;5125038;27;20030;-67
2021/03/04 04:55:37;;;;;;;215.00;110.65;;;;;;;;;;5116799;28;20391;-68
2021/03/04 04:58:03;;;;;;;223.23;114.57;;;;;;;;;;5117426;28;20019;-68
2021/03/04 05:00:29;;;;;;;223.50;117.50;;;;;;;;;;5098381;27;20011;-67
2021/03/04 05:02:55;;;;;;;225.38;120.60;;;;;;;;;;5098626;28;20024;-65
2021/03/04 05:05:21;;;;;;;219.02;118.63;;;;;;;;;;5116819;28;20023;-67
2021/03/04 05:07:47;;;;;;;199.15;108.63;;;;;;;;;;5116802;28;20047;-70
2021/03/04 05:10:13;;;;;;;182.23;99.15;;;;;;;;;;5098467;27;20011;-65
2021/03/04 05:12:39;;;;;;;181.02;98.78;;;;;;;;;;5137068;27;20015;-67
2021/03/04 05:15:07;;;;;;;174.35;93.13;;;;;;;;;;5137050;27;20023;-69
2021/03/04 05:17:33;;;;;;;181.55;94.70;;;;;;;;;;5137261;27;20011;-68
2021/03/04 05:19:59;;;;;;;184.93;98.80;;;;;;;;;;5118771;27;20333;-68
2021/03/04 05:22:25;;;;;;;171.48;93.03;;;;;;;;;;5136832;27;20023;-68
2021/03/04 05:24:51;;;;;;;174.80;91.35;;;;;;;;;;5118630;27;20060;-68
2021/03/04 05:27:17;;;;;;;166.52;89.70;;;;;;;;;;5119999;27;20074;-69
2021/03/04 05:29:43;;;;;;;164.13;89.50;;;;;;;;;;5116450;28;20016;-67
2021/03/04 05:32:10;;;;;;;157.85;87.78;;;;;;;;;;5098478;28;20537;-67
2021/03/04 05:34:36;;;;;;;168.20;90.75;;;;;;;;;;5123176;27;20039;-67
2021/03/04 05:37:02;;;;;;;162.48;89.20;;;;;;;;;;5136557;27;20098;-67
2021/03/04 05:39:28;;;;;;;178.05;97.95;;;;;;;;;;5136840;27;20015;-69
2021/03/04 05:41:55;;;;;;;180.60;101.55;;;;;;;;;;5136534;27;20039;-67
2021/03/04 05:44:23;;;;;;;203.02;104.30;;;;;;;;;;5118429;27;20087;-67
2021/03/04 05:46:50;;;;;;;246.25;127.95;;;;;;;;;;5136304;27;20027;-68
2021/03/04 05:49:18;;;;;;;249.98;126.43;;;;;;;;;;5132043;27;20376;-67
2021/03/04 05:51:46;;;;;;;232.68;120.63;;;;;;;;;;5116087;28;20081;-65
2021/03/04 05:54:15;;;;;;;208.57;105.85;;;;;;;;;;5115952;28;20023;-69
2021/03/04 05:56:42;;;;;;;189.02;99.35;;;;;;;;;;5097300;28;20019;-68
2021/03/04 05:59:09;;;;;;;192.70;101.95;;;;;;;;;;5096624;28;20363;-66
2021/03/04 06:01:35;;;;;;;186.77;100.50;;;;;;;;;;5115530;28;20357;-70
2021/03/04 06:04:01;;;;;;;190.57;100.75;;;;;;;;;;5097197;28;20102;-68
2021/03/04 06:06:27;;;;;;;176.48;98.38;;;;;;;;;;5097950;28;20118;-67
2021/03/04 06:08:53;;;;;;;187.05;95.72;;;;;;;;;;5097361;28;20460;-67
2021/03/04 06:11:20;;;;;;;151.23;82.22;;;;;;;;;;5129098;27;20019;-67
2021/03/04 06:13:46;;;;;;;140.63;76.55;;;;;;;;;;5135826;27;20507;-67
2021/03/04 06:16:12;;;;;;;199.98;104.13;;;;;;;;;;5135440;27;20363;-67
2021/03/04 06:18:39;;;;;;;191.25;112.38;;;;;;;;;;5135715;27;20023;-65
2021/03/04 06:21:16;;;;;;;255.35;116.18;;;;;;;;;;5136221;27;20104;-67
2021/03/04 06:23:42;;;;;;;261.52;124.07;;;;;;;;;;5136002;27;20458;-64
2021/03/04 06:26:09;;;;;;;265.00;133.00;;;;;;;;;;5104546;28;20132;-67
2021/03/04 06:28:35;;;;;;;248.55;120.05;;;;;;;;;;5115242;28;20020;-68
2021/03/04 06:31:01;;;;;;;289.60;172.70;;;;;;;;;;5096650;28;20019;-66
2021/03/04 06:33:35;;;;;;;254.13;148.90;;;;;;;;;;5115166;28;20023;-70
2021/03/04 06:36:11;;;;;;;135.05;74.95;;;;;;;;;;5115216;28;20456;-69
2021/03/04 06:38:37;;;;;;;218.88;128.75;;;;;;;;;;5114754;28;20356;-71
2021/03/04 06:41:04;;;;;;;142.55;78.82;;;;;;;;;;5114670;28;20464;-70
2021/03/04 06:43:30;;;;;;;128.68;69.00;;;;;;;;;;5096474;28;20023;-71
2021/03/04 06:46:06;;;;;;;157.32;80.45;;;;;;;;;;5105600;27;20065;-70
2021/03/04 06:48:32;;;;;;;187.63;98.55;;;;;;;;;;5117469;27;20015;-71
2021/03/04 06:51:02;;;;;;;201.70;104.32;;;;;;;;;;5135020;27;20059;-70
2021/03/04 06:53:29;;;;;;;163.68;89.40;;;;;;;;;;5129982;27;20349;-69
2021/03/04 06:56:05;;;;;;;159.10;85.88;;;;;;;;;;5114744;28;20031;-71
2021/03/04 06:58:39;;;;;;;151.68;79.43;;;;;;;;;;5096612;28;20027;-68
2021/03/04 07:01:12;;;;;;;165.23;88.60;;;;;;;;;;5114710;28;20062;-69
2021/03/04 07:03:45;;;;;;;172.52;89.78;;;;;;;;;;5114975;28;20467;-68
2021/03/04 07:06:15;;;;;;;181.68;89.57;;;;;;;;;;5095952;28;20024;-68
2021/03/04 07:08:42;;;;;;;238.50;112.00;;;;;;;;;;5116369;27;20027;-69
2021/03/04 07:11:10;;;;;;;227.30;113.53;;;;;;;;;;5095856;28;20026;-70
2021/03/04 07:13:36;;;;;;;192.45;95.55;;;;;;;;;;5095898;28;20468;-70
2021/03/04 07:16:07;;;;;;;204.05;108.13;;;;;;;;;;5115047;28;20498;-70
2021/03/04 07:18:40;;;;;;;206.32;103.97;;;;;;;;;;5114629;28;20049;-68
2021/03/04 07:21:08;;;;;;;170.43;87.22;;;;;;;;;;5114076;28;20035;-69
2021/03/04 07:23:36;;;;;;;164.23;87.47;;;;;;;;;;5114091;28;20012;-69
2021/03/04 07:26:02;;;;;;;148.82;78.15;;;;;;;;;;5123584;27;20034;-69
2021/03/04 07:28:29;;;;;;;145.73;82.60;;;;;;;;;;5116130;28;20015;-70
2021/03/04 07:30:55;;;;;;;142.48;81.82;;;;;;;;;;5116142;27;20421;-69
2021/03/04 07:33:22;;;;;;;151.23;83.47;;;;;;;;;;5134458;27;20448;-68
2021/03/04 07:35:48;;;;;;;140.70;77.80;;;;;;;;;;5135110;28;20463;-69
2021/03/04 07:38:27;;;;;;;129.18;70.13;;;;;;;;;;5135046;28;20019;-68
2021/03/04 07:41:08;;;;;;;126.70;68.95;;;;;;;;;;5101332;28;20411;-70
2021/03/04 07:43:43;;;;;;;111.68;63.13;;;;;;;;;;5096815;28;20027;-71
2021/03/04 07:46:09;;;;;;;120.57;62.80;;;;;;;;;;5095828;28;20027;-69
2021/03/04 07:48:35;;;;;;;121.57;64.38;;;;;;;;;;5122268;28;20027;-68
2021/03/04 07:51:01;;;;;;;115.53;60.78;;;;;;;;;;5134700;28;20363;-68
2021/03/04 07:53:28;;;;;;;99.47;56.05;;;;;;;;;;5134909;28;20404;-67
2021/03/04 07:55:54;;;;;;;105.88;56.35;;;;;;;;;;5134315;28;20043;-67
2021/03/04 07:58:20;;;;;;;103.28;53.75;;;;;;;;;;5114719;28;20019;-67
2021/03/04 08:00:46;;;;;;;99.97;53.70;;;;;;;;;;5114037;28;20020;-67
2021/03/04 08:03:13;;;;;;;100.50;53.83;;;;;;;;;;5113776;28;20012;-65
2021/03/04 08:05:43;;;;;;;120.50;58.08;;;;;;;;;;5114328;28;20023;-66
2021/03/04 08:08:10;;;;;;;96.53;53.55;;;;;;;;;;5096067;28;20023;-65
2021/03/04 08:10:44;;;;;;;96.55;55.72;;;;;;;;;;5113531;28;20046;-66
2021/03/04 08:13:10;;;;;;;102.68;55.42;;;;;;;;;;5131150;28;20019;-68
2021/03/04 08:15:40;;;;;;;92.65;53.13;;;;;;;;;;5134068;28;20492;-69
2021/03/04 08:18:16;;;;;;;93.53;53.53;;;;;;;;;;5134431;28;20020;-69
2021/03/04 08:20:42;;;;;;;89.25;52.55;;;;;;;;;;5135368;28;20022;-69
2021/03/04 08:23:09;;;;;;;89.55;49.10;;;;;;;;;;5136072;27;20471;-68
2021/03/04 08:25:36;;;;;;;97.57;52.85;;;;;;;;;;5137902;27;20378;-68
2021/03/04 08:28:04;;;;;;;89.65;52.72;;;;;;;;;;5119456;27;20512;-68
2021/03/04 08:30:33;;;;;;;91.40;52.20;;;;;;;;;;5117462;27;20450;-66
2021/03/04 08:33:17;;;;;;;97.68;54.80;;;;;;;;;;5117887;28;20087;-67
2021/03/04 08:35:47;;;;;;;85.65;51.05;;;;;;;;;;5117732;28;20045;-67
2021/03/04 08:38:14;;;;;;;83.97;50.40;;;;;;;;;;5099933;27;20116;-74
2021/03/04 08:40:41;;;;;;;91.22;49.83;;;;;;;;;;5137525;27;20019;-71
2021/03/04 08:43:14;;;;;;;79.88;47.90;;;;;;;;;;5135492;27;20415;-71
2021/03/04 08:45:40;;;;;;;78.47;46.15;;;;;;;;;;5137658;27;20023;-69
2021/03/04 08:48:10;;;;;;;76.80;46.88;;;;;;;;;;5118886;27;20551;-71
2021/03/04 08:50:39;;;;;;;87.80;49.00;;;;;;;;;;5118901;27;20015;-70
2021/03/04 08:53:15;;;;;;;78.20;47.55;;;;;;;;;;5136521;27;20057;-70
2021/03/04 08:55:48;;;;;;;82.50;46.10;;;;;;;;;;5137539;27;20456;-68
2021/03/04 08:58:14;;;;;;;93.40;53.45;;;;;;;;;;5136801;27;20505;-70
2021/03/04 09:00:45;;;;;;;80.13;45.22;;;;;;;;;;5117150;27;20023;-68
2021/03/04 09:03:11;;;;;;;81.82;49.70;;;;;;;;;;5137451;27;20062;-68
2021/03/04 09:05:39;;;;;;;97.75;55.42;;;;;;;;;;5136996;27;20098;-68
2021/03/04 09:08:09;;;;;;;104.63;56.95;;;;;;;;;;5137534;27;20027;-70
2021/03/04 09:10:48;;;;;;;101.32;56.10;;;;;;;;;;5102666;28;20051;-70
2021/03/04 09:13:21;;;;;;;78.18;44.42;;;;;;;;;;5136718;27;20038;-70
2021/03/04 09:15:50;;;;;;;69.82;42.13;;;;;;;;;;5121817;27;20054;-72
2021/03/04 09:18:16;;;;;;;75.18;44.17;;;;;;;;;;5121930;27;20011;-70
2021/03/04 09:20:43;;;;;;;64.95;42.88;;;;;;;;;;5116384;27;20041;-70
2021/03/04 09:23:10;;;;;;;94.45;56.13;;;;;;;;;;5136724;27;20019;-69
2021/03/04 09:25:36;;;;;;;72.97;42.90;;;;;;;;;;5106272;28;20122;-69
2021/03/04 09:28:02;;;;;;;62.15;38.08;;;;;;;;;;5118738;27;20035;-70
2021/03/04 09:30:29;;;;;;;99.07;49.45;;;;;;;;;;5137173;27;20042;-68
2021/03/04 09:32:58;;;;;;;71.07;42.42;;;;;;;;;;5136537;27;20020;-70
2021/03/04 09:35:25;;;;;;;61.88;40.03;;;;;;;;;;5117124;27;20064;-69
2021/03/04 09:37:51;;;;;;;60.50;38.03;;;;;;;;;;5117039;27;20031;-70
2021/03/04 09:40:30;;;;;;;54.53;35.67;;;;;;;;;;5097707;28;20055;-70
2021/03/04 09:42:56;;;;;;;62.30;36.78;;;;;;;;;;5117820;27;20049;-70
2021/03/04 09:45:22;;;;;;;78.38;44.53;;;;;;;;;;5133917;27;20452;-69
2021/03/04 09:47:49;;;;;;;49.92;33.08;;;;;;;;;;5134177;27;20483;-69
2021/03/04 09:50:18;;;;;;;60.05;36.35;;;;;;;;;;5118310;27;20455;-68
2021/03/04 09:52:45;;;;;;;53.17;32.40;;;;;;;;;;5128830;27;20023;-69
2021/03/04 09:55:11;;;;;;;79.15;43.97;;;;;;;;;;5136442;27;20023;-69
2021/03/04 09:57:40;;;;;;;54.17;33.40;;;;;;;;;;5117860;27;20102;-68
2021/03/04 10:00:08;;;;;;;55.78;31.63;;;;;;;;;;5119797;27;20015;-68
2021/03/04 10:02:38;;;;;;;51.83;31.17;;;;;;;;;;5120343;27;20539;-68
2021/03/04 10:05:04;;;;;;;42.20;30.42;;;;;;;;;;5129668;27;20071;-67
2021/03/04 10:07:31;;;;;;;46.28;27.92;;;;;;;;;;5122598;27;20028;-68
2021/03/04 10:09:58;;;;;;;42.20;27.23;;;;;;;;;;5123659;27;20015;-68
2021/03/04 10:12:25;;;;;;;38.90;26.38;;;;;;;;;;5122250;27;20031;-69
2021/03/04 10:14:53;;;;;;;41.60;28.10;;;;;;;;;;5124296;27;20524;-69
2021/03/04 10:17:19;;;;;;;38.20;25.38;;;;;;;;;;5106954;27;20027;-69
2021/03/04 10:19:48;;;;;;;49.05;26.85;;;;;;;;;;5123437;27;20022;-69
2021/03/04 10:22:15;;;;;;;34.42;25.52;;;;;;;;;;5104237;27;20462;-69
2021/03/04 10:24:41;;;;;;;38.92;24.40;;;;;;;;;;5124874;27;20015;-68
2021/03/04 10:27:08;;;;;;;38.05;24.45;;;;;;;;;;5125119;27;20455;-68
2021/03/04 10:29:35;;;;;;;34.67;25.35;;;;;;;;;;5122282;27;20065;-68
2021/03/04 10:32:01;;;;;;;40.55;24.08;;;;;;;;;;5125160;27;20491;-67
2021/03/04 10:34:28;;;;;;;39.55;25.85;;;;;;;;;;5105125;27;20110;-68
2021/03/04 10:36:54;;;;;;;40.30;25.15;;;;;;;;;;5123311;27;20023;-68
2021/03/04 10:39:21;;;;;;;41.33;28.50;;;;;;;;;;5106543;27;20011;-69
2021/03/04 10:41:47;;;;;;;35.90;23.95;;;;;;;;;;5123388;27;20039;-68
2021/03/04 10:44:14;;;;;;;35.78;23.90;;;;;;;;;;5121530;27;20015;-69
2021/03/04 10:46:40;;;;;;;36.17;24.55;;;;;;;;;;5124149;27;20094;-69
2021/03/04 10:49:07;;;;;;;37.83;23.45;;;;;;;;;;5123292;27;20011;-69
2021/03/04 10:51:34;;;;;;;40.10;24.70;;;;;;;;;;5104956;27;20015;-68
2021/03/04 10:54:00;;;;;;;34.92;22.10;;;;;;;;;;5124054;27;20734;-66
2021/03/04 10:56:26;;;;;;;39.22;25.33;;;;;;;;;;5122634;27;20036;-67
2021/03/04 10:58:53;;;;;;;34.05;23.50;;;;;;;;;;5123571;27;20011;-67
2021/03/04 11:01:20;;;;;;;36.28;24.63;;;;;;;;;;5124733;27;20027;-67
2021/03/04 11:03:46;;;;;;;38.25;24.02;;;;;;;;;;5122458;27;20737;-68
2021/03/04 11:06:12;;;;;;;34.70;23.48;;;;;;;;;;5124360;27;20027;-66
2021/03/04 11:08:39;;;;;;;37.03;23.30;;;;;;;;;;5103324;28;20031;-67
2021/03/04 11:11:05;;;;;;;34.58;23.33;;;;;;;;;;5104069;27;20024;-69
2021/03/04 11:13:31;;;;;;;33.85;22.67;;;;;;;;;;5104862;28;20018;-67
2021/03/04 11:15:57;;;;;;;26.35;18.30;;;;;;;;;;5122427;27;20023;-68
2021/03/04 11:18:24;;;;;;;26.63;18.27;;;;;;;;;;5122223;27;20015;-67
2021/03/04 11:20:50;;;;;;;25.80;17.38;;;;;;;;;;5104860;28;20011;-68
2021/03/04 11:23:16;;;;;;;22.40;15.67;;;;;;;;;;5123639;27;20410;-66
2021/03/04 11:25:42;;;;;;;27.58;16.77;;;;;;;;;;5121678;27;20019;-65
2021/03/04 11:28:09;;;;;;;23.48;16.88;;;;;;;;;;5124063;27;20030;-67
2021/03/04 11:30:35;;;;;;;27.80;17.58;;;;;;;;;;5105256;28;20186;-66
2021/03/04 11:33:04;;;;;;;26.30;16.43;;;;;;;;;;5121054;27;20094;-65
2021/03/04 11:35:30;;;;;;;25.63;18.20;;;;;;;;;;5122633;28;20414;-66
2021/03/04 11:37:56;;;;;;;22.20;14.88;;;;;;;;;;5122683;28;20015;-65
2021/03/04 11:40:23;;;;;;;20.55;13.85;;;;;;;;;;5124021;28;20014;-69
2021/03/04 11:42:49;;;;;;;23.05;15.25;;;;;;;;;;5103654;28;20052;-68
2021/03/04 11:45:16;;;;;;;24.50;16.30;;;;;;;;;;5122610;28;20037;-68
2021/03/04 11:47:42;;;;;;;24.33;15.20;;;;;;;;;;5105540;28;20023;-68
2021/03/04 11:50:09;;;;;;;22.20;14.75;;;;;;;;;;5113744;28;20412;-67
2021/03/04 11:52:35;;;;;;;26.08;17.98;;;;;;;;;;5113939;28;20023;-66
2021/03/04 11:55:01;;;;;;;28.50;18.17;;;;;;;;;;5132743;28;20016;-68
2021/03/04 11:57:27;;;;;;;25.60;17.95;;;;;;;;;;5102041;28;20387;-67
2021/03/04 11:59:55;;;;;;;28.17;17.00;;;;;;;;;;5126567;27;20047;-67
2021/03/04 12:02:21;;;;;;;24.77;16.90;;;;;;;;;;5122871;27;20023;-68
2021/03/04 12:04:47;;;;;;;24.15;15.15;;;;;;;;;;5100125;28;20360;-67
2021/03/04 12:07:13;;;;;;;29.00;18.73;;;;;;;;;;5117868;28;20030;-66
2021/03/04 12:09:39;;;;;;;21.33;16.85;;;;;;;;;;5099532;28;20031;-67
2021/03/04 12:12:06;;;;;;;22.40;14.20;;;;;;;;;;5129774;27;20027;-67
2021/03/04 12:14:32;;;;;;;29.65;16.10;;;;;;;;;;5137598;27;20029;-68
2021/03/04 12:16:59;;;;;;;20.05;15.05;;;;;;;;;;5135265;27;20019;-67
2021/03/04 12:19:25;;;;;;;26.13;15.68;;;;;;;;;;5117716;28;20016;-67
2021/03/04 12:21:51;;;;;;;34.60;16.15;;;;;;;;;;5117452;27;20432;-68
2021/03/04 12:24:17;;;;;;;23.00;14.57;;;;;;;;;;5122076;27;20348;-68
2021/03/04 12:26:44;;;;;;;27.58;18.67;;;;;;;;;;5117316;28;20023;-68
2021/03/04 12:29:10;;;;;;;29.73;17.60;;;;;;;;;;5117878;28;20029;-69
2021/03/04 12:31:37;;;;;;;24.33;15.38;;;;;;;;;;5117097;28;20016;-69
2021/03/04 12:34:03;;;;;;;19.63;12.40;;;;;;;;;;5117778;28;20019;-70
2021/03/04 12:36:29;;;;;;;20.80;13.35;;;;;;;;;;5126126;27;20102;-67
2021/03/04 12:38:55;;;;;;;57.75;31.75;;;;;;;;;;5129241;27;20023;-68
2021/03/04 12:41:21;;;;;;;21.02;12.75;;;;;;;;;;5127248;27;20168;-70
2021/03/04 12:43:47;;;;;;;19.88;14.30;;;;;;;;;;5106670;27;20015;-67
2021/03/04 12:46:13;;;;;;;21.17;15.32;;;;;;;;;;5125284;27;20015;-68
2021/03/04 12:48:39;;;;;;;20.17;13.73;;;;;;;;;;5126833;27;20066;-69
2021/03/04 12:51:05;;;;;;;23.10;13.55;;;;;;;;;;5127054;27;20025;-69
2021/03/04 12:53:32;;;;;;;20.23;12.90;;;;;;;;;;5107206;27;20018;-71
2021/03/04 12:55:58;;;;;;;23.63;14.35;;;;;;;;;;5104580;27;20464;-69
2021/03/04 12:58:24;;;;;;;27.45;17.50;;;;;;;;;;5112304;27;20022;-69
2021/03/04 13:00:50;;;;;;;24.08;15.73;;;;;;;;;;5118999;27;20068;-70
2021/03/04 13:03:16;;;;;;;30.02;16.92;;;;;;;;;;5137208;27;20042;-70
2021/03/04 13:05:43;;;;;;;21.38;15.18;;;;;;;;;;5137442;27;20015;-71
2021/03/04 13:08:09;;;;;;;24.88;14.60;;;;;;;;;;5118396;27;20023;-69
2021/03/04 13:10:35;;;;;;;30.85;15.57;;;;;;;;;;5137067;27;20401;-68
2021/03/04 13:13:02;;;;;;;25.45;16.75;;;;;;;;;;5135521;27;20041;-69
2021/03/04 13:15:28;;;;;;;26.77;15.65;;;;;;;;;;5118751;27;20023;-69
2021/03/04 13:17:54;;;;;;;28.90;15.27;;;;;;;;;;5118679;27;20037;-71
2021/03/04 13:20:20;;;;;;;20.40;13.82;;;;;;;;;;5136604;27;20011;-70
2021/03/04 13:22:47;;;;;;;27.13;17.07;;;;;;;;;;5136815;27;20068;-68
2021/03/04 13:25:13;;;;;;;31.67;17.17;;;;;;;;;;5118568;27;20376;-70
2021/03/04 13:27:39;;;;;;;32.08;16.58;;;;;;;;;;5136327;27;20024;-69
2021/03/04 13:30:05;;;;;;;23.77;16.45;;;;;;;;;;5112100;28;20019;-67
2021/03/04 13:32:32;;;;;;;31.60;17.80;;;;;;;;;;5098247;28;20468;-68
2021/03/04 13:34:58;;;;;;;25.20;15.30;;;;;;;;;;5115997;28;20027;-69
2021/03/04 13:37:24;;;;;;;19.58;12.20;;;;;;;;;;5098060;28;20474;-68
2021/03/04 13:39:50;;;;;;;25.10;16.35;;;;;;;;;;5116371;28;20048;-68
2021/03/04 13:42:16;;;;;;;20.30;16.15;;;;;;;;;;5104487;27;20119;-67
2021/03/04 13:44:42;;;;;;;22.15;16.20;;;;;;;;;;5105448;28;20371;-68
2021/03/04 13:47:08;;;;;;;19.33;12.40;;;;;;;;;;5116073;28;20020;-69
2021/03/04 13:49:34;;;;;;;24.33;12.82;;;;;;;;;;5115355;28;20080;-68
2021/03/04 13:52:01;;;;;;;19.58;11.75;;;;;;;;;;5115938;28;20023;-70
2021/03/04 13:54:27;;;;;;;20.10;13.23;;;;;;;;;;5097834;28;20464;-69
2021/03/04 13:56:53;;;;;;;18.25;12.32;;;;;;;;;;5115850;28;20047;-69
2021/03/04 13:59:20;;;;;;;24.55;13.82;;;;;;;;;;5115483;28;20353;-71
2021/03/04 14:01:46;;;;;;;28.50;18.85;;;;;;;;;;5115663;28;20094;-68
2021/03/04 14:04:12;;;;;;;21.33;12.93;;;;;;;;;;5125381;27;20023;-69
2021/03/04 14:06:38;;;;;;;21.85;14.73;;;;;;;;;;5117743;27;20102;-68